createdAt,value
2017-04-29T00:00:59.013Z,7.15
2017-04-29T00:01:58.983Z,7.18
2017-04-29T00:02:58.960Z,7.16
2017-04-29T00:03:58.939Z,7.08
2017-04-29T00:04:58.913Z,7.12
2017-04-29T00:05:58.892Z,7.11
2017-04-29T00:06:58.875Z,7.09
2017-04-29T00:07:58.840Z,7.11
2017-04-29T00:08:58.812Z,7.05
2017-04-29T00:09:58.795Z,7.09
2017-04-29T00:10:58.771Z,7.08
2017-04-29T00:11:58.743Z,7.07
2017-04-29T00:12:58.726Z,7.07
2017-04-29T00:13:58.703Z,7
2017-04-29T00:14:58.726Z,6.9
2017-04-29T00:15:58.639Z,6.94
2017-04-29T00:16:58.873Z,6.9
2017-04-29T00:17:58.599Z,6.99
2017-04-29T00:18:58.632Z,6.86
2017-04-29T00:19:58.254Z,6.87
2017-04-29T00:20:58.234Z,6.78
2017-04-29T00:21:58.500Z,6.81
2017-04-29T00:22:58.478Z,6.75
2017-04-29T00:23:58.452Z,6.73
2017-04-29T00:24:58.439Z,6.71
2017-04-29T00:25:58.398Z,6.61
2017-04-29T00:26:58.378Z,6.63
2017-04-29T00:27:58.354Z,6.69
2017-04-29T00:28:58.337Z,6.55
2017-04-29T00:29:58.313Z,6.54
2017-04-29T00:30:58.283Z,6.55
2017-04-29T00:31:58.258Z,6.57
2017-04-29T00:32:58.240Z,6.57
2017-04-29T00:33:58.211Z,6.48
2017-04-29T00:34:58.197Z,6.5
2017-04-29T00:35:58.162Z,6.46
2017-04-29T00:36:57.832Z,6.38
2017-04-29T00:37:58.118Z,6.38
2017-04-29T00:38:58.098Z,6.43
2017-04-29T00:39:58.064Z,6.43
2017-04-29T00:40:58.041Z,6.35
2017-04-29T00:41:58.011Z,6.35
2017-04-29T00:42:58.033Z,6.36
2017-04-29T00:43:57.964Z,6.42
2017-04-29T00:44:57.944Z,6.4
2017-04-29T00:45:57.923Z,6.38
2017-04-29T00:46:57.914Z,6.4
2017-04-29T00:47:57.869Z,6.35
2017-04-29T00:48:57.854Z,6.33
2017-04-29T00:49:57.823Z,6.45
2017-04-29T00:50:57.787Z,6.33
2017-04-29T00:51:57.476Z,6.35
2017-04-29T00:52:57.744Z,6.32
2017-04-29T00:53:57.724Z,6.3
2017-04-29T00:54:57.699Z,6.32
2017-04-29T00:55:57.670Z,6.3
2017-04-29T00:56:57.648Z,6.32
2017-04-29T00:57:57.627Z,6.25
2017-04-29T00:58:57.600Z,6.3
2017-04-29T00:59:57.588Z,6.32
2017-04-29T01:00:57.555Z,6.25
2017-04-29T01:01:57.555Z,6.33
2017-04-29T01:02:57.504Z,6.4
2017-04-29T01:03:57.483Z,6.35
2017-04-29T01:04:57.450Z,6.43
2017-04-29T01:05:57.423Z,6.45
2017-04-29T01:06:57.406Z,6.39
2017-04-29T01:07:57.377Z,6.32
2017-04-29T01:08:57.357Z,6.4
2017-04-29T01:09:57.326Z,6.42
2017-04-29T01:10:57.353Z,6.36
2017-04-29T01:11:57.276Z,6.45
2017-04-29T01:12:57.261Z,6.48
2017-04-29T01:13:57.234Z,6.54
2017-04-29T01:14:57.206Z,6.54
2017-04-29T01:15:57.179Z,6.6
2017-04-29T01:16:57.154Z,6.45
2017-04-29T01:17:57.137Z,6.45
2017-04-29T01:18:56.818Z,6.5
2017-04-29T01:19:56.782Z,6.48
2017-04-29T01:20:57.062Z,6.51
2017-04-29T01:21:57.034Z,6.43
2017-04-29T01:22:57.012Z,6.45
2017-04-29T01:23:56.981Z,6.55
2017-04-29T01:24:56.965Z,6.61
2017-04-29T01:25:56.937Z,6.57
2017-04-29T01:26:56.919Z,6.61
2017-04-29T01:27:56.588Z,6.55
2017-04-29T01:28:56.861Z,6.55
2017-04-29T01:29:56.840Z,6.6
2017-04-29T01:30:56.818Z,6.53
2017-04-29T01:31:56.793Z,6.58
2017-04-29T01:32:56.778Z,6.61
2017-04-29T01:33:56.743Z,6.58
2017-04-29T01:34:56.815Z,6.58
2017-04-29T01:35:56.690Z,6.55
2017-04-29T01:36:56.670Z,6.55
2017-04-29T01:37:56.652Z,6.53
2017-04-29T01:38:56.619Z,6.6
2017-04-29T01:39:56.598Z,6.65
2017-04-29T01:40:56.624Z,6.6
2017-04-29T01:41:56.553Z,6.69
2017-04-29T01:42:56.518Z,6.58
2017-04-29T01:43:56.549Z,6.61
2017-04-29T01:44:56.468Z,6.61
2017-04-29T01:45:56.442Z,6.64
2017-04-29T01:46:56.427Z,6.58
2017-04-29T01:47:56.454Z,6.6
2017-04-29T01:48:56.581Z,6.51
2017-04-29T01:49:56.354Z,6.61
2017-04-29T01:50:56.327Z,6.6
2017-04-29T01:51:55.994Z,6.58
2017-04-29T01:52:56.276Z,6.55
2017-04-29T01:53:56.253Z,6.58
2017-04-29T01:54:56.226Z,6.58
2017-04-29T01:55:56.204Z,6.64
2017-04-29T01:56:56.175Z,6.6
2017-04-29T01:57:56.154Z,6.6
2017-04-29T01:58:56.123Z,6.57
2017-04-29T01:59:56.103Z,6.6
2017-04-29T02:00:56.345Z,6.6
2017-04-29T02:01:56.058Z,6.55
2017-04-29T02:02:56.038Z,6.6
2017-04-29T02:03:56.006Z,6.58
2017-04-29T02:04:55.982Z,6.58
2017-04-29T02:05:55.969Z,6.6
2017-04-29T02:06:55.934Z,6.57
2017-04-29T02:07:55.912Z,6.69
2017-04-29T02:08:55.893Z,6.63
2017-04-29T02:09:55.858Z,6.61
2017-04-29T02:10:55.833Z,6.63
2017-04-29T02:11:55.807Z,6.64
2017-04-29T02:12:55.791Z,6.63
2017-04-29T02:13:55.765Z,6.68
2017-04-29T02:14:55.989Z,6.63
2017-04-29T02:15:55.709Z,6.54
2017-04-29T02:16:55.726Z,6.61
2017-04-29T02:17:55.668Z,6.55
2017-04-29T02:18:55.640Z,6.6
2017-04-29T02:19:55.617Z,6.64
2017-04-29T02:20:55.600Z,6.6
2017-04-29T02:21:55.572Z,6.55
2017-04-29T02:22:55.587Z,6.6
2017-04-29T02:23:55.519Z,6.61
2017-04-29T02:24:55.496Z,6.6
2017-04-29T02:25:55.465Z,6.48
2017-04-29T02:26:55.444Z,6.48
2017-04-29T02:27:55.426Z,6.6
2017-04-29T02:28:55.399Z,6.45
2017-04-29T02:29:55.371Z,6.53
2017-04-29T02:30:55.350Z,6.57
2017-04-29T02:31:55.321Z,6.57
2017-04-29T02:32:55.291Z,6.54
2017-04-29T02:33:55.278Z,6.48
2017-04-29T02:34:55.257Z,6.5
2017-04-29T02:35:54.932Z,6.55
2017-04-29T02:36:55.252Z,6.48
2017-04-29T02:37:55.183Z,6.39
2017-04-29T02:38:55.152Z,6.4
2017-04-29T02:39:55.133Z,6.4
2017-04-29T02:40:55.106Z,6.48
2017-04-29T02:41:55.080Z,6.45
2017-04-29T02:42:55.056Z,6.48
2017-04-29T02:43:55.024Z,6.5
2017-04-29T02:44:55.037Z,6.48
2017-04-29T02:45:54.685Z,6.46
2017-04-29T02:46:54.960Z,6.46
2017-04-29T02:47:54.930Z,6.48
2017-04-29T02:48:54.904Z,6.48
2017-04-29T02:49:54.885Z,6.46
2017-04-29T02:50:54.857Z,6.43
2017-04-29T02:51:54.834Z,6.48
2017-04-29T02:52:54.817Z,6.51
2017-04-29T02:53:54.795Z,6.5
2017-04-29T02:54:54.763Z,6.45
2017-04-29T02:55:54.740Z,6.48
2017-04-29T02:56:54.709Z,6.57
2017-04-29T02:57:54.692Z,6.51
2017-04-29T02:58:54.665Z,6.46
2017-04-29T02:59:54.639Z,6.39
2017-04-29T03:00:54.621Z,6.48
2017-04-29T03:01:54.592Z,6.51
2017-04-29T03:02:54.617Z,6.48
2017-04-29T03:03:54.295Z,6.43
2017-04-29T03:04:54.516Z,6.48
2017-04-29T03:05:54.486Z,6.39
2017-04-29T03:06:54.464Z,6.38
2017-04-29T03:07:54.451Z,6.33
2017-04-29T03:08:54.667Z,6.33
2017-04-29T03:09:54.391Z,6.3
2017-04-29T03:10:54.369Z,6.24
2017-04-29T03:11:54.348Z,6.32
2017-04-29T03:12:54.325Z,6.24
2017-04-29T03:13:54.293Z,6.17
2017-04-29T03:14:54.277Z,6.2
2017-04-29T03:15:53.946Z,6.21
2017-04-29T03:16:54.217Z,6.19
2017-04-29T03:17:54.198Z,6.21
2017-04-29T03:18:54.170Z,6.19
2017-04-29T03:19:54.194Z,6.21
2017-04-29T03:20:54.121Z,6.2
2017-04-29T03:21:54.094Z,6.2
2017-04-29T03:22:54.072Z,6.19
2017-04-29T03:23:54.051Z,6.11
2017-04-29T03:24:54.033Z,6.06
2017-04-29T03:25:54.000Z,6.06
2017-04-29T03:26:53.982Z,5.93
2017-04-29T03:27:53.961Z,5.95
2017-04-29T03:28:53.937Z,6.1
2017-04-29T03:29:53.933Z,6.24
2017-04-29T03:30:53.876Z,6.25
2017-04-29T03:31:53.864Z,6.36
2017-04-29T03:32:53.834Z,6.48
2017-04-29T03:33:53.806Z,6.57
2017-04-29T03:34:53.783Z,6.58
2017-04-29T03:35:53.756Z,6.58
2017-04-29T03:36:53.729Z,6.57
2017-04-29T03:37:53.702Z,6.63
2017-04-29T03:38:53.680Z,6.63
2017-04-29T03:39:53.912Z,6.53
2017-04-29T03:40:53.632Z,6.58
2017-04-29T03:41:53.612Z,6.63
2017-04-29T03:42:53.582Z,6.68
2017-04-29T03:43:53.556Z,6.65
2017-04-29T03:44:53.537Z,6.55
2017-04-29T03:45:53.200Z,6.58
2017-04-29T03:46:53.475Z,6.55
2017-04-29T03:47:53.466Z,6.6
2017-04-29T03:48:53.189Z,6.64
2017-04-29T03:49:53.103Z,6.58
2017-04-29T03:50:53.380Z,6.68
2017-04-29T03:51:53.358Z,6.73
2017-04-29T03:52:53.340Z,6.55
2017-04-29T03:53:53.320Z,6.55
2017-04-29T03:54:53.284Z,6.6
2017-04-29T03:55:53.263Z,6.55
2017-04-29T03:56:53.237Z,6.53
2017-04-29T03:57:53.216Z,6.55
2017-04-29T03:58:53.193Z,6.57
2017-04-29T03:59:53.416Z,6.58
2017-04-29T04:00:53.132Z,6.53
2017-04-29T04:01:53.113Z,6.48
2017-04-29T04:02:53.092Z,6.48
2017-04-29T04:03:53.065Z,6.54
2017-04-29T04:04:53.039Z,6.46
2017-04-29T04:05:53.014Z,6.53
2017-04-29T04:06:52.990Z,6.6
2017-04-29T04:07:52.993Z,6.58
2017-04-29T04:08:52.946Z,6.53
2017-04-29T04:09:52.916Z,6.69
2017-04-29T04:10:52.893Z,6.69
2017-04-29T04:11:52.876Z,6.68
2017-04-29T04:12:52.840Z,6.76
2017-04-29T04:13:52.819Z,6.79
2017-04-29T04:14:52.799Z,6.81
2017-04-29T04:15:52.769Z,6.75
2017-04-29T04:16:52.748Z,6.75
2017-04-29T04:17:52.731Z,6.64
2017-04-29T04:18:52.704Z,6.6
2017-04-29T04:19:52.671Z,6.55
2017-04-29T04:20:52.645Z,6.46
2017-04-29T04:21:52.629Z,6.39
2017-04-29T04:22:52.603Z,6.32
2017-04-29T04:23:52.572Z,6.36
2017-04-29T04:24:52.597Z,6.33
2017-04-29T04:25:52.527Z,6.35
2017-04-29T04:26:52.504Z,6.32
2017-04-29T04:27:52.475Z,6.24
2017-04-29T04:28:52.156Z,6.2
2017-04-29T04:29:52.479Z,6.21
2017-04-29T04:30:52.399Z,6.2
2017-04-29T04:31:52.384Z,6.24
2017-04-29T04:32:52.355Z,6.24
2017-04-29T04:33:52.333Z,6.24
2017-04-29T04:34:52.313Z,6.2
2017-04-29T04:35:52.286Z,6.32
2017-04-29T04:36:52.261Z,6.2
2017-04-29T04:37:52.227Z,6.3
2017-04-29T04:38:52.214Z,6.24
2017-04-29T04:39:52.179Z,6.25
2017-04-29T04:40:52.153Z,6.28
2017-04-29T04:41:52.135Z,6.28
2017-04-29T04:42:52.117Z,6.25
2017-04-29T04:43:52.086Z,6.28
2017-04-29T04:44:52.053Z,6.27
2017-04-29T04:45:52.037Z,6.3
2017-04-29T04:46:52.006Z,6.32
2017-04-29T04:47:51.991Z,6.39
2017-04-29T04:48:51.962Z,6.35
2017-04-29T04:49:51.934Z,6.38
2017-04-29T04:50:51.913Z,6.53
2017-04-29T04:51:51.885Z,6.55
2017-04-29T04:52:51.864Z,6.58
2017-04-29T04:53:51.856Z,6.64
2017-04-29T04:54:51.819Z,6.63
2017-04-29T04:55:51.789Z,6.63
2017-04-29T04:56:51.814Z,6.63
2017-04-29T04:57:51.797Z,6.6
2017-04-29T04:58:51.717Z,6.58
2017-04-29T04:59:51.393Z,6.6
2017-04-29T05:00:51.666Z,6.53
2017-04-29T05:01:51.648Z,6.58
2017-04-29T05:02:51.627Z,6.61
2017-04-29T05:03:51.601Z,6.57
2017-04-29T05:04:51.266Z,6.53
2017-04-29T05:05:51.547Z,6.57
2017-04-29T05:06:51.523Z,6.61
2017-04-29T05:07:51.506Z,6.6
2017-04-29T05:08:51.483Z,6.57
2017-04-29T05:09:51.451Z,6.58
2017-04-29T05:10:51.422Z,6.6
2017-04-29T05:11:51.405Z,6.63
2017-04-29T05:12:51.378Z,6.6
2017-04-29T05:13:51.357Z,6.54
2017-04-29T05:14:51.338Z,6.68
2017-04-29T05:15:51.300Z,6.64
2017-04-29T05:16:51.281Z,6.68
2017-04-29T05:17:51.261Z,6.69
2017-04-29T05:18:51.233Z,6.65
2017-04-29T05:19:50.637Z,6.72
2017-04-29T05:20:51.181Z,6.72
2017-04-29T05:21:51.166Z,6.68
2017-04-29T05:22:51.130Z,6.69
2017-04-29T05:23:51.120Z,6.75
2017-04-29T05:24:51.157Z,6.72
2017-04-29T05:25:51.062Z,6.76
2017-04-29T05:26:51.039Z,6.76
2017-04-29T05:27:51.017Z,6.76
2017-04-29T05:28:50.694Z,6.78
2017-04-29T05:29:50.968Z,6.72
2017-04-29T05:30:50.995Z,6.91
2017-04-29T05:31:50.917Z,6.93
2017-04-29T05:32:50.888Z,6.91
2017-04-29T05:33:50.887Z,6.86
2017-04-29T05:34:50.844Z,6.9
2017-04-29T05:35:50.824Z,6.87
2017-04-29T05:36:50.804Z,6.99
2017-04-29T05:37:50.784Z,7.05
2017-04-29T05:38:50.755Z,7.11
2017-04-29T05:39:50.725Z,7.11
2017-04-29T05:40:50.952Z,7.08
2017-04-29T05:41:50.679Z,7.08
2017-04-29T05:42:50.652Z,7.21
2017-04-29T05:43:50.632Z,7.15
2017-04-29T05:44:50.327Z,7.12
2017-04-29T05:45:50.594Z,7.14
2017-04-29T05:46:50.557Z,7.18
2017-04-29T05:47:50.544Z,7.26
2017-04-29T05:48:50.514Z,7.19
2017-04-29T05:49:50.491Z,7.27
2017-04-29T05:50:50.466Z,7.24
2017-04-29T05:51:50.445Z,7.23
2017-04-29T05:52:50.475Z,7.27
2017-04-29T05:53:50.392Z,7.33
2017-04-29T05:54:50.372Z,7.36
2017-04-29T05:55:50.348Z,7.33
2017-04-29T05:56:50.333Z,7.41
2017-04-29T05:57:50.311Z,7.42
2017-04-29T05:58:50.333Z,7.54
2017-04-29T05:59:49.953Z,7.51
2017-04-29T06:00:50.234Z,7.62
2017-04-29T06:01:50.205Z,7.63
2017-04-29T06:02:50.187Z,7.63
2017-04-29T06:03:50.170Z,7.7
2017-04-29T06:04:50.135Z,7.74
2017-04-29T06:05:50.127Z,7.77
2017-04-29T06:06:50.092Z,7.88
2017-04-29T06:07:49.775Z,7.94
2017-04-29T06:08:50.101Z,8.02
2017-04-29T06:09:50.071Z,7.96
2017-04-29T06:10:49.994Z,7.99
2017-04-29T06:11:50.001Z,8.14
2017-04-29T06:12:49.954Z,8.07
2017-04-29T06:13:49.934Z,8.12
2017-04-29T06:14:49.906Z,8.22
2017-04-29T06:15:49.880Z,8.34
2017-04-29T06:16:49.860Z,8.32
2017-04-29T06:17:49.844Z,8.37
2017-04-29T06:18:49.813Z,8.49
2017-04-29T06:19:49.793Z,8.46
2017-04-29T06:20:49.768Z,8.57
2017-04-29T06:21:49.502Z,8.6
2017-04-29T06:22:49.420Z,8.63
2017-04-29T06:23:49.699Z,8.73
2017-04-29T06:24:49.675Z,8.65
2017-04-29T06:25:49.657Z,8.7
2017-04-29T06:26:49.637Z,8.68
2017-04-29T06:27:49.608Z,8.64
2017-04-29T06:28:49.582Z,8.7
2017-04-29T06:29:49.566Z,8.71
2017-04-29T06:30:49.536Z,8.8
2017-04-29T06:31:49.528Z,8.75
2017-04-29T06:32:49.506Z,8.85
2017-04-29T06:33:49.473Z,8.82
2017-04-29T06:34:49.171Z,8.97
2017-04-29T06:35:49.126Z,9
2017-04-29T06:36:49.406Z,8.94
2017-04-29T06:37:49.384Z,8.98
2017-04-29T06:38:49.350Z,9
2017-04-29T06:39:49.332Z,9.1
2017-04-29T06:40:49.317Z,9.35
2017-04-29T06:41:49.294Z,9.49
2017-04-29T06:42:49.257Z,9.44
2017-04-29T06:43:49.297Z,9.55
2017-04-29T06:44:49.227Z,9.67
2017-04-29T06:45:49.203Z,9.7
2017-04-29T06:46:49.184Z,9.67
2017-04-29T06:47:48.853Z,9.53
2017-04-29T06:48:49.186Z,9.49
2017-04-29T06:49:48.806Z,9.41
2017-04-29T06:50:49.085Z,9.31
2017-04-29T06:51:49.065Z,9.32
2017-04-29T06:52:49.039Z,9.37
2017-04-29T06:53:48.724Z,9.32
2017-04-29T06:54:48.712Z,9.37
2017-04-29T06:55:48.972Z,9.41
2017-04-29T06:56:48.664Z,9.48
2017-04-29T06:57:48.930Z,9.48
2017-04-29T06:58:48.910Z,9.5
2017-04-29T06:59:48.881Z,9.38
2017-04-29T07:00:48.869Z,9.48
2017-04-29T07:01:48.542Z,9.56
2017-04-29T07:02:48.828Z,9.59
2017-04-29T07:03:48.803Z,9.85
2017-04-29T07:04:48.476Z,9.93
2017-04-29T07:05:48.807Z,10.06
2017-04-29T07:06:48.738Z,10.24
2017-04-29T07:07:48.414Z,10.35
2017-04-29T07:08:48.689Z,10.38
2017-04-29T07:09:48.692Z,10.6
2017-04-29T07:10:48.648Z,10.94
2017-04-29T07:11:48.627Z,11.16
2017-04-29T07:12:48.606Z,11.42
2017-04-29T07:13:48.588Z,11.97
2017-04-29T07:14:48.570Z,12.61
2017-04-29T07:15:48.538Z,13.14
2017-04-29T07:16:48.225Z,13.41
2017-04-29T07:17:48.501Z,13.72
2017-04-29T07:18:48.477Z,13.65
2017-04-29T07:19:48.194Z,13.62
2017-04-29T07:20:48.140Z,13.57
2017-04-29T07:21:48.423Z,13.46
2017-04-29T07:22:48.096Z,13.19
2017-04-29T07:23:48.089Z,13.19
2017-04-29T07:24:48.357Z,13.17
2017-04-29T07:25:48.335Z,13.25
2017-04-29T07:26:48.320Z,13.24
2017-04-29T07:27:48.304Z,13.14
2017-04-29T07:28:47.980Z,13.13
2017-04-29T07:29:48.264Z,13.06
2017-04-29T07:30:48.244Z,12.88
2017-04-29T07:31:47.632Z,12.84
2017-04-29T07:32:48.206Z,12.92
2017-04-29T07:33:48.178Z,12.67
2017-04-29T07:34:47.869Z,12.54
2017-04-29T07:35:48.149Z,12.3
2017-04-29T07:36:47.837Z,12.23
2017-04-29T07:37:48.123Z,12.05
2017-04-29T07:38:48.092Z,11.85
2017-04-29T07:39:48.065Z,11.67
2017-04-29T07:40:48.056Z,11.7
2017-04-29T07:41:48.019Z,11.53
2017-04-29T07:42:48.012Z,11.48
2017-04-29T07:43:47.686Z,11.59
2017-04-29T07:44:47.665Z,11.53
2017-04-29T07:45:47.646Z,11.44
2017-04-29T07:46:47.322Z,11.46
2017-04-29T07:47:47.898Z,11.44
2017-04-29T07:48:47.885Z,11.42
2017-04-29T07:49:47.615Z,11.54
2017-04-29T07:50:47.838Z,11.75
2017-04-29T07:51:47.819Z,12.16
2017-04-29T07:52:47.802Z,12.55
2017-04-29T07:53:47.473Z,12.73
2017-04-29T07:54:47.764Z,12.77
2017-04-29T07:55:47.730Z,12.85
2017-04-29T07:56:47.714Z,12.92
2017-04-29T07:57:47.703Z,13.03
2017-04-29T07:58:47.682Z,13.14
2017-04-29T07:59:47.363Z,13.14
2017-04-29T08:00:47.647Z,13.24
2017-04-29T08:01:47.613Z,13.27
2017-04-29T08:02:47.648Z,13.54
2017-04-29T08:03:47.585Z,13.65
2017-04-29T08:04:47.569Z,13.55
2017-04-29T08:05:47.556Z,13.44
2017-04-29T08:06:47.519Z,13.24
2017-04-29T08:07:47.505Z,13.04
2017-04-29T08:08:47.486Z,12.73
2017-04-29T08:09:47.164Z,12.61
2017-04-29T08:10:47.444Z,12.81
2017-04-29T08:11:47.474Z,13.21
2017-04-29T08:12:47.412Z,13.44
2017-04-29T08:13:46.786Z,13.75
2017-04-29T08:14:47.381Z,14.05
2017-04-29T08:15:47.055Z,14.44
2017-04-29T08:16:47.071Z,15.07
2017-04-29T08:17:47.311Z,15.4
2017-04-29T08:18:47.002Z,15.19
2017-04-29T08:19:47.279Z,15.05
2017-04-29T08:20:46.656Z,15.11
2017-04-29T08:21:47.239Z,15
2017-04-29T08:22:47.219Z,14.72
2017-04-29T08:23:47.213Z,14.53
2017-04-29T08:24:47.188Z,14.29
2017-04-29T08:25:47.169Z,13.83
2017-04-29T08:26:47.146Z,13.48
2017-04-29T08:27:47.179Z,13.12
2017-04-29T08:28:47.102Z,13.04
2017-04-29T08:29:47.083Z,12.7
2017-04-29T08:30:46.766Z,12.25
2017-04-29T08:31:47.061Z,11.98
2017-04-29T08:32:46.724Z,11.56
2017-04-29T08:33:47.051Z,11.44
2017-04-29T08:34:46.991Z,11.28
2017-04-29T08:35:46.965Z,11.11
2017-04-29T08:36:46.946Z,10.91
2017-04-29T08:37:46.929Z,10.72
2017-04-29T08:38:46.916Z,10.6
2017-04-29T08:39:46.889Z,10.63
2017-04-29T08:40:46.565Z,10.58
2017-04-29T08:41:46.541Z,10.51
2017-04-29T08:42:46.521Z,10.46
2017-04-29T08:43:46.843Z,10.44
2017-04-29T08:44:46.780Z,10.38
2017-04-29T08:45:46.759Z,10.34
2017-04-29T08:46:46.738Z,10.29
2017-04-29T08:47:46.721Z,10.35
2017-04-29T08:48:46.690Z,10.39
2017-04-29T08:49:46.672Z,10.44
2017-04-29T08:50:46.699Z,10.72
2017-04-29T08:51:46.626Z,10.83
2017-04-29T08:52:46.607Z,10.87
2017-04-29T08:53:46.583Z,10.8
2017-04-29T08:54:46.616Z,10.88
2017-04-29T08:55:46.545Z,10.87
2017-04-29T08:56:46.559Z,10.86
2017-04-29T08:57:46.507Z,10.87
2017-04-29T08:58:46.473Z,10.8
2017-04-29T08:59:46.459Z,10.57
2017-04-29T09:00:46.437Z,10.54
2017-04-29T09:01:46.425Z,10.47
2017-04-29T09:02:46.399Z,10.54
2017-04-29T09:03:46.069Z,10.35
2017-04-29T09:04:46.349Z,10.31
2017-04-29T09:05:46.331Z,10.24
2017-04-29T09:06:46.317Z,10.1
2017-04-29T09:07:46.281Z,10.06
2017-04-29T09:08:46.254Z,10.01
2017-04-29T09:09:46.292Z,9.92
2017-04-29T09:10:46.215Z,9.88
2017-04-29T09:11:46.196Z,9.89
2017-04-29T09:12:46.182Z,9.8
2017-04-29T09:13:45.851Z,9.75
2017-04-29T09:14:46.128Z,9.75
2017-04-29T09:15:46.102Z,9.78
2017-04-29T09:16:46.082Z,9.86
2017-04-29T09:17:45.766Z,9.88
2017-04-29T09:18:46.056Z,9.88
2017-04-29T09:19:46.016Z,9.86
2017-04-29T09:20:46.057Z,9.96
2017-04-29T09:21:45.973Z,10.01
2017-04-29T09:22:45.952Z,10.17
2017-04-29T09:23:45.933Z,10.18
2017-04-29T09:24:45.910Z,10.38
2017-04-29T09:25:45.883Z,10.65
2017-04-29T09:26:45.870Z,10.76
2017-04-29T09:27:45.856Z,10.9
2017-04-29T09:28:45.821Z,11.35
2017-04-29T09:29:45.798Z,11.88
2017-04-29T09:30:45.775Z,12.22
2017-04-29T09:31:45.757Z,12.69
2017-04-29T09:32:45.738Z,13.12
2017-04-29T09:33:45.722Z,13.75
2017-04-29T09:34:45.703Z,14.01
2017-04-29T09:35:45.678Z,14.35
2017-04-29T09:36:45.668Z,14.49
2017-04-29T09:37:45.688Z,14.91
2017-04-29T09:38:45.617Z,15.33
2017-04-29T09:39:45.597Z,15.68
2017-04-29T09:40:45.575Z,16.08
2017-04-29T09:41:45.568Z,16.48
2017-04-29T09:42:45.742Z,16.82
2017-04-29T09:43:45.538Z,16.9
2017-04-29T09:44:45.515Z,16.85
2017-04-29T09:45:45.540Z,16.9
2017-04-29T09:46:45.474Z,16.8
2017-04-29T09:47:45.461Z,16.67
2017-04-29T09:48:45.446Z,16.69
2017-04-29T09:49:45.450Z,16.44
2017-04-29T09:50:45.408Z,16.67
2017-04-29T09:51:45.395Z,16.99
2017-04-29T09:52:45.382Z,17.53
2017-04-29T09:53:45.364Z,17.77
2017-04-29T09:54:45.355Z,17.71
2017-04-29T09:55:45.328Z,17.66
2017-04-29T09:56:45.322Z,17.63
2017-04-29T09:57:45.311Z,17.74
2017-04-29T09:58:45.301Z,17.77
2017-04-29T09:59:45.274Z,17.49
2017-04-29T10:00:45.254Z,17.09
2017-04-29T10:01:45.245Z,16.26
2017-04-29T10:02:45.281Z,15.77
2017-04-29T10:03:45.222Z,15.05
2017-04-29T10:04:45.201Z,14.44
2017-04-29T10:05:45.185Z,14.05
2017-04-29T10:06:45.164Z,13.62
2017-04-29T10:07:44.851Z,13.22
2017-04-29T10:08:45.137Z,13.03
2017-04-29T10:09:45.115Z,12.8
2017-04-29T10:10:45.090Z,12.52
2017-04-29T10:11:45.079Z,12.37
2017-04-29T10:12:44.772Z,12.08
2017-04-29T10:13:45.038Z,11.94
2017-04-29T10:14:45.025Z,11.72
2017-04-29T10:15:45.007Z,11.6
2017-04-29T10:16:44.987Z,11.56
2017-04-29T10:17:44.961Z,11.42
2017-04-29T10:18:44.939Z,11.56
2017-04-29T10:19:44.926Z,11.48
2017-04-29T10:20:44.596Z,11.44
2017-04-29T10:21:44.883Z,11.41
2017-04-29T10:22:44.855Z,11.33
2017-04-29T10:23:44.838Z,11.35
2017-04-29T10:24:44.811Z,11.6
2017-04-29T10:25:44.493Z,11.93
2017-04-29T10:26:44.779Z,12.52
2017-04-29T10:27:44.757Z,13.25
2017-04-29T10:28:44.746Z,13.66
2017-04-29T10:29:44.775Z,13.86
2017-04-29T10:30:44.709Z,13.83
2017-04-29T10:31:44.671Z,13.79
2017-04-29T10:32:44.357Z,13.79
2017-04-29T10:33:44.631Z,13.79
2017-04-29T10:34:44.618Z,13.63
2017-04-29T10:35:44.591Z,13.61
2017-04-29T10:36:44.601Z,13.63
2017-04-29T10:37:44.615Z,13.63
2017-04-29T10:38:44.556Z,13.68
2017-04-29T10:39:44.518Z,13.71
2017-04-29T10:40:44.506Z,13.75
2017-04-29T10:41:44.509Z,13.79
2017-04-29T10:42:44.464Z,13.72
2017-04-29T10:43:44.440Z,13.61
2017-04-29T10:44:44.428Z,13.62
2017-04-29T10:45:44.407Z,13.48
2017-04-29T10:46:44.378Z,13.51
2017-04-29T10:47:44.363Z,13.44
2017-04-29T10:48:45.347Z,13.38
2017-04-29T10:49:44.322Z,13.41
2017-04-29T10:50:44.302Z,13.32
2017-04-29T10:51:44.287Z,13.32
2017-04-29T10:52:44.265Z,13.25
2017-04-29T10:53:44.289Z,13.16
2017-04-29T10:54:44.222Z,13.25
2017-04-29T10:55:44.198Z,13.31
2017-04-29T10:56:44.183Z,13.44
2017-04-29T10:57:44.163Z,13.46
2017-04-29T10:58:44.142Z,13.46
2017-04-29T10:59:44.114Z,13.62
2017-04-29T11:00:43.849Z,13.5
2017-04-29T11:01:44.074Z,13.62
2017-04-29T11:02:44.357Z,13.63
2017-04-29T11:03:44.035Z,13.66
2017-04-29T11:04:44.020Z,13.8
2017-04-29T11:05:44.001Z,13.81
2017-04-29T11:06:43.978Z,13.73
2017-04-29T11:07:43.962Z,13.59
2017-04-29T11:08:43.939Z,13.53
2017-04-29T11:09:43.923Z,13.38
2017-04-29T11:10:43.914Z,13.53
2017-04-29T11:11:43.878Z,13.51
2017-04-29T11:12:43.580Z,13.44
2017-04-29T11:13:43.842Z,13.48
2017-04-29T11:14:43.816Z,13.47
2017-04-29T11:15:43.800Z,13.5
2017-04-29T11:16:43.772Z,13.57
2017-04-29T11:17:43.757Z,13.57
2017-04-29T11:18:43.739Z,13.43
2017-04-29T11:19:43.714Z,13.28
2017-04-29T11:20:43.402Z,13.14
2017-04-29T11:21:43.738Z,13.13
2017-04-29T11:22:43.708Z,13.03
2017-04-29T11:23:43.638Z,12.91
2017-04-29T11:24:43.616Z,12.74
2017-04-29T11:25:43.645Z,12.8
2017-04-29T11:26:43.284Z,12.92
2017-04-29T11:27:43.604Z,13.03
2017-04-29T11:28:43.543Z,13.12
2017-04-29T11:29:43.512Z,13.09
2017-04-29T11:30:43.486Z,13.14
2017-04-29T11:31:43.482Z,13.21
2017-04-29T11:32:43.448Z,13.27
2017-04-29T11:33:43.124Z,13.39
2017-04-29T11:34:43.412Z,13.46
2017-04-29T11:35:43.390Z,13.32
2017-04-29T11:36:43.064Z,13.16
2017-04-29T11:37:43.344Z,13.24
2017-04-29T11:38:43.325Z,13.38
2017-04-29T11:39:43.306Z,13.54
2017-04-29T11:40:43.291Z,13.61
2017-04-29T11:41:43.266Z,13.72
2017-04-29T11:42:43.253Z,13.75
2017-04-29T11:43:43.230Z,13.69
2017-04-29T11:44:43.201Z,13.76
2017-04-29T11:45:43.183Z,13.81
2017-04-29T11:46:43.159Z,13.75
2017-04-29T11:47:42.844Z,13.81
2017-04-29T11:48:43.128Z,13.8
2017-04-29T11:49:43.106Z,13.76
2017-04-29T11:50:43.088Z,13.61
2017-04-29T11:51:43.063Z,13.5
2017-04-29T11:52:43.038Z,13.38
2017-04-29T11:53:43.021Z,13.38
2017-04-29T11:54:43.049Z,13.27
2017-04-29T11:55:42.687Z,13.24
2017-04-29T11:56:42.955Z,13.13
2017-04-29T11:57:42.952Z,13.1
2017-04-29T11:58:42.635Z,13.21
2017-04-29T11:59:42.943Z,13.17
2017-04-29T12:00:42.884Z,13.1
2017-04-29T12:01:43.158Z,13.12
2017-04-29T12:02:42.841Z,13.13
2017-04-29T12:03:42.821Z,13.17
2017-04-29T12:04:43.006Z,13.36
2017-04-29T12:05:42.769Z,13.32
2017-04-29T12:06:42.751Z,13.44
2017-04-29T12:07:42.740Z,13.32
2017-04-29T12:08:42.719Z,13.38
2017-04-29T12:09:42.089Z,13.43
2017-04-29T12:10:42.676Z,13.36
2017-04-29T12:11:42.702Z,13.29
2017-04-29T12:12:42.355Z,13.13
2017-04-29T12:13:42.312Z,13.13
2017-04-29T12:14:42.587Z,13.06
2017-04-29T12:15:42.570Z,13.04
2017-04-29T12:16:42.552Z,12.98
2017-04-29T12:17:42.528Z,12.94
2017-04-29T12:18:42.514Z,12.88
2017-04-29T12:19:42.487Z,12.88
2017-04-29T12:20:42.455Z,12.85
2017-04-29T12:21:42.440Z,12.79
2017-04-29T12:22:42.628Z,12.79
2017-04-29T12:23:42.398Z,12.8
2017-04-29T12:24:42.075Z,12.81
2017-04-29T12:25:42.368Z,12.77
2017-04-29T12:26:42.337Z,12.81
2017-04-29T12:27:42.379Z,12.89
2017-04-29T12:28:42.293Z,12.98
2017-04-29T12:29:42.281Z,13.01
2017-04-29T12:30:42.256Z,13.12
2017-04-29T12:31:42.231Z,13.12
2017-04-29T12:32:42.214Z,13.17
2017-04-29T12:33:42.195Z,13.38
2017-04-29T12:34:41.871Z,13.44
2017-04-29T12:35:42.204Z,13.53
2017-04-29T12:36:42.127Z,13.46
2017-04-29T12:37:42.110Z,13.48
2017-04-29T12:38:42.093Z,13.53
2017-04-29T12:39:42.071Z,13.61
2017-04-29T12:40:42.044Z,13.8
2017-04-29T12:41:42.022Z,13.91
2017-04-29T12:42:42.013Z,14.02
2017-04-29T12:43:41.684Z,14.08
2017-04-29T12:44:41.967Z,14.21
2017-04-29T12:45:41.947Z,14.17
2017-04-29T12:46:42.171Z,14.34
2017-04-29T12:47:41.905Z,14.26
2017-04-29T12:48:41.880Z,14.16
2017-04-29T12:49:41.855Z,14.04
2017-04-29T12:50:41.845Z,13.93
2017-04-29T12:51:41.826Z,14.02
2017-04-29T12:52:41.815Z,13.96
2017-04-29T12:53:41.788Z,14.04
2017-04-29T12:54:42.018Z,14.06
2017-04-29T12:55:41.749Z,13.9
2017-04-29T12:56:41.722Z,13.83
2017-04-29T12:57:41.710Z,13.84
2017-04-29T12:58:41.677Z,13.75
2017-04-29T12:59:41.745Z,13.57
2017-04-29T13:00:41.639Z,13.65
2017-04-29T13:01:41.612Z,13.62
2017-04-29T13:02:41.599Z,13.47
2017-04-29T13:03:41.578Z,13.57
2017-04-29T13:04:41.556Z,13.47
2017-04-29T13:05:41.533Z,13.57
2017-04-29T13:06:41.517Z,13.57
2017-04-29T13:07:41.502Z,13.51
2017-04-29T13:08:41.725Z,13.47
2017-04-29T13:09:41.154Z,13.43
2017-04-29T13:10:41.435Z,13.39